首页
METAR-TAF:

METAR-TAF

机场 :

巴斯蒂亚, 法国

纬度: 42-33N, 经度: 009-29E, 海拔: 8米

当前天气观测

该预报发布于26分钟前的16:30 UTC
风速5节,风向南转南东,在东转东南之间变化
温度 24°C
湿度 50%
气压 1001 hPa
能见度10公里或以上
1500米以下无云,无积雨云

METAR: LFKB 051630Z AUTO 15005KT 110V170 CAVOK 24/13 Q1001 TEMPO 34015KT

时间: 18:56 (16:56 UTC)

预报

该预报发布于2小时和56分钟前的14:00 UTC
预报有效从05日的 15点(UTC)到 06日的 15点(UTC)
风速8节,风向
能见度10公里或以上
短暂存在
从 05日的 15点(UTC)到 05日的 18点(UTC)
风速15节,风向北转西北
成为
从 05日的 18点(UTC)到 05日的 20点(UTC)
风速6节,风向西转西南
能见度10公里或以上
1500米以下无云,无积雨云
成为
从 06日的 07点(UTC)到 06日的 09点(UTC)
风速8节,风向东转东南

TAF: LFKB 051400Z 0515/0615 10008KT 9999 NSC TX26/0612Z TN15/0603Z TEMPO 0515/0518 34015KT BECMG 0518/0520 24006KT CAVOK BECMG 0607/0609 12008KT

超过4000个机场的气象观测和天气预报(METAR&TAF报告)。

可查询的气象台以黄色和红色小点在地图上表示。

将鼠标移到小点上方,可查看气象台名称。

然后点击查看天气观测和预报。

如需切换地图:点击带黑十字的绿色按钮放大地图;点击带横线的绿色按钮缩小地图;或者点击绿色箭头查看邻近地区的地图。


METAR-TAF: